createdAt,value
2023-04-18T00:04:06.618Z,3.50
2023-04-18T00:14:08.627Z,3.58
2023-04-18T00:24:11.336Z,3.90
2023-04-18T00:34:14.085Z,3.72
2023-04-18T00:44:16.120Z,3.80
2023-04-18T00:54:21.817Z,4.05
2023-04-18T01:04:23.474Z,3.45
2023-04-18T01:14:25.372Z,3.70
2023-04-18T01:24:29.784Z,3.25
2023-04-18T01:34:31.626Z,3.80
2023-04-18T01:44:33.301Z,3.47
2023-04-18T01:54:35.736Z,3.47
2023-04-18T02:04:38.042Z,3.22
2023-04-18T02:14:40.068Z,3.10
2023-04-18T02:24:42.119Z,3.35
2023-04-18T02:34:44.225Z,2.70
2023-04-18T02:44:45.778Z,3.05
2023-04-18T02:54:47.476Z,2.90
2023-04-18T03:04:49.559Z,2.75
2023-04-18T03:14:51.783Z,2.28
2023-04-18T03:24:53.909Z,2.55
2023-04-18T03:34:56.018Z,2.47
2023-04-18T03:44:57.642Z,2.38
2023-04-18T03:55:00.356Z,2.28
2023-04-18T04:05:02.722Z,2.50
2023-04-18T04:15:05.906Z,2.38
2023-04-18T04:25:09.035Z,2.05
2023-04-18T04:35:11.691Z,2.17
2023-04-18T04:45:13.870Z,1.80
2023-04-18T04:55:16.024Z,1.88
2023-04-18T05:05:18.048Z,1.80
2023-04-18T05:15:20.481Z,1.80
2023-04-18T05:25:22.286Z,1.70
2023-04-18T05:35:23.908Z,1.50
2023-04-18T05:45:25.545Z,1.77
2023-04-18T05:55:27.179Z,1.52
2023-04-18T06:05:30.162Z,1.60
2023-04-18T06:15:32.064Z,2.00
2023-04-18T06:25:33.935Z,1.60
2023-04-18T06:35:36.609Z,1.60
